Hastain, Missouri
Current Conditions -  °F | °C
As of 5:35 PM on Wednesday 22 Oct 2014 (Local Time) from KH21 Reporting Station
Clear Clear  
Wind Chill: 19°   Ceiling: Unl
Heat Index: 19°   Visibility: 10mi
Dew Point:   Wind: 7mph
Humidity: 49%   Direction: 120°ESE
Pressure: 30.16"   Gusts: NA
Location:  38.1656°N, 93.1481°W
Report Text: KH21 222235Z AUTO 12006KT 10SM CLR 19/08 A3016 RMK AO2
Loading
Personal Weather Stations






























Interactive Weather Map
Tropical Storm Tracking
New forecast layout! Learn more

10-Day Weather Forecast

Advertisements
Track Severe Weather on mobile